Knoxville, AR

7:13 PM CDT on August 30, 2016 (GMT -0500)
MesoWest | | Change Station

Elev 394 ft 35.38 °N, 93.37 °W | Updated 1 hour ago

Clear
Clear
80.0 °F
Feels Like 80.0 °F
N
0.0
Wind Variable Wind from North
Gusts 0.0 mph

Today
High -- | Low -- °F
--% Chance of Precip.
Yesterday
High -- | Low -- °F
Precip. -- in
Pressure 29.96 in
Visibility 10.0 miles
Clouds Clear
Dew Point Not available.
Humidity Not available.
Rainfall in
Snow Depth Not available.
6:44 AM 7:42 PM
Waning Crescent, 2% visible
METAR KRUE 302353Z AUTO 00000KT 10SM CLR 27/24 A2998 RMK AO2 SLP145 P0003 60016 T02670244 10328 20233 58009
Pressure 29.96 in
Visibility 10.0 miles
Clouds Clear
Dew Point Not available.
Humidity Not available.
Rainfall in
Snow Depth Not available.
6:44 AM 7:42 PM
Waning Crescent, 2% visible
METAR KRUE 302353Z AUTO 00000KT 10SM CLR 27/24 A2998 RMK AO2 SLP145 P0003 60016 T02670244 10328 20233 58009

10-Day Weather Forecast

Almanac

Astronomy

Aug. 30, 2016 Rise Set
Actual Time
Civil Twilight
Nautical Twilight
Astronomical Twilight
Moon
Length of Visible Light
Length of Day
Tomorrow will be .
, % of the Moon is Illuminated

Today's Extremes

State Highs State Lows

Community

WunderPhotos

Upload Photos

1,935,960 photos uploaded!

WunderBlog® & News

Nearby

Air Quality

  Air Quality AQ Index Pollutant
Not available.

Snow Depth

Station Depth Elevation

Earthquake Activity

City Distance Mag. Time & Date
Minimum magnitude displayed is 2.5.

Coastal Water Temperatures

Place Temperature

Stations

Nearby Weather Stations

Station Location Temp. Windchill Dew Point Humidity Wind Precip. Elev Updated Type
                   

Watches & Warnings

There are currently no watches in effect.